Time;durP1;ratioP1;P1;durP2;ratioP2;P2;SDS_P1;SDS_P2;PMS_P1;PMS_P2;Temp;Humidity;BMP_temperature;BMP_pressure;BME280_temperature;BME280_humidity;BME280_pressure;Samples;Min_cycle;Max_cycle;Signal;HPM_P1;HPM_P2
2022/05/22 00:00:22;;;;;;;2.67;2.58;;;22.20;70.90;;;;;;5011688;28;20273;-73
2022/05/22 00:02:49;;;;;;;2.20;2.10;;;22.20;70.70;;;;;;5011335;28;20220;-73
2022/05/22 00:05:17;;;;;;;2.00;2.00;;;22.10;71.00;;;;;;5018013;28;20180;-73
2022/05/22 00:07:43;;;;;;;3.85;2.30;;;22.10;71.40;;;;;;5009817;28;20188;-73
2022/05/22 00:10:10;;;;;;;2.30;2.25;;;22.00;72.70;;;;;;5014929;28;20184;-73
2022/05/22 00:12:36;;;;;;;2.10;2.10;;;22.00;71.30;;;;;;5009280;28;20275;-73
2022/05/22 00:15:03;;;;;;;2.45;2.13;;;21.90;71.20;;;;;;5014176;28;20177;-73
2022/05/22 00:17:28;;;;;;;2.53;2.45;;;21.90;72.80;;;;;;5010761;28;20228;-73
2022/05/22 00:19:54;;;;;;;2.33;2.22;;;;;;;;;;5015726;28;20223;-73
2022/05/22 00:22:21;;;;;;;2.50;2.40;;;;;;;;;;5016116;28;20226;-73
2022/05/22 00:24:46;;;;;;;2.28;2.17;;;21.80;71.70;;;;;;5016193;28;20184;-73
2022/05/22 00:27:12;;;;;;;1.90;1.90;;;;;;;;;;5016548;28;20270;-73
2022/05/22 00:29:39;;;;;;;2.78;2.65;;;21.70;72.10;;;;;;5012622;28;20187;-73
2022/05/22 00:32:06;;;;;;;2.22;2.10;;;21.70;73.00;;;;;;5048789;28;20920;-73
2022/05/22 00:34:31;;;;;;;2.38;2.20;;;21.80;72.30;;;;;;5012353;28;20185;-73
2022/05/22 00:36:58;;;;;;;2.40;2.20;;;;;;;;;;5012082;28;20176;-72
2022/05/22 00:39:23;;;;;;;2.42;2.33;;;21.80;72.90;;;;;;5016787;28;20584;-72
2022/05/22 00:41:55;;;;;;;2.40;2.30;;;21.70;72.80;;;;;;5014862;28;20213;-73
2022/05/22 00:44:21;;;;;;;2.22;2.22;;;21.70;72.30;;;;;;5017321;28;20252;-73
2022/05/22 00:46:48;;;;;;;1.88;1.83;;;21.70;72.60;;;;;;5009412;28;20259;-73
2022/05/22 00:49:27;;;;;;;2.35;2.25;;;21.70;73.30;;;;;;5013164;28;20188;-72
2022/05/22 00:51:53;;;;;;;1.75;1.75;;;21.60;72.90;;;;;;5041121;28;20718;-71
2022/05/22 00:54:28;;;;;;;2.42;2.33;;;21.60;72.60;;;;;;5011137;28;20271;-73
2022/05/22 00:57:04;;;;;;;2.30;2.20;;;21.60;73.30;;;;;;5012060;28;20180;-73
2022/05/22 00:59:35;;;;;;;2.30;2.20;;;21.60;73.90;;;;;;5045289;28;20203;-74
2022/05/22 01:02:01;;;;;;;2.72;2.53;;;21.50;74.60;;;;;;5013126;28;20244;-74
2022/05/22 01:04:31;;;;;;;2.15;1.95;;;21.50;73.50;;;;;;5015680;28;20586;-74
2022/05/22 01:06:57;;;;;;;2.45;2.30;;;21.50;73.00;;;;;;5009108;28;20282;-73
2022/05/22 01:09:22;;;;;;;2.15;2.15;;;21.50;73.60;;;;;;5009845;28;20583;-74
2022/05/22 01:11:53;;;;;;;2.08;1.98;;;21.50;72.80;;;;;;5012872;28;20327;-74
2022/05/22 01:14:22;;;;;;;2.00;1.90;;;21.40;73.30;;;;;;5011356;28;20725;-73
2022/05/22 01:16:49;;;;;;;2.13;2.13;;;21.40;73.40;;;;;;5028587;28;20596;-74
2022/05/22 01:19:18;;;;;;;2.38;2.17;;;21.40;73.20;;;;;;5013889;28;20638;-74
2022/05/22 01:21:50;;;;;;;2.15;1.95;;;21.40;73.20;;;;;;5016211;28;20308;-74
2022/05/22 01:24:16;;;;;;;2.92;2.00;;;;;;;;;;5045548;28;20186;-73
2022/05/22 01:26:41;;;;;;;2.63;2.00;;;21.40;74.00;;;;;;5014156;28;20191;-74
2022/05/22 01:29:07;;;;;;;1.88;1.80;;;;;;;;;;5011554;28;20177;-74
2022/05/22 01:31:33;;;;;;;1.85;1.75;;;21.30;73.70;;;;;;5015608;28;20180;-73
2022/05/22 01:33:59;;;;;;;1.90;1.85;;;;;;;;;;5017595;28;20185;-74
2022/05/22 01:36:25;;;;;;;2.28;1.60;;;21.30;72.50;;;;;;5009356;28;20181;-73
2022/05/22 01:38:51;;;;;;;2.17;2.08;;;;;;;;;;5015377;28;20791;-74
2022/05/22 01:41:16;;;;;;;4.32;2.25;;;21.30;72.80;;;;;;5012335;28;20300;-73
2022/05/22 01:43:42;;;;;;;1.40;1.40;;;;;;;;;;5013270;28;20264;-74
2022/05/22 01:46:08;;;;;;;1.42;1.42;;;21.20;72.50;;;;;;5012932;28;20181;-74
2022/05/22 01:48:34;;;;;;;1.45;1.45;;;21.20;71.70;;;;;;5012383;28;20185;-75
2022/05/22 01:51:00;;;;;;;1.63;1.63;;;;;;;;;;5011354;28;20191;-74
2022/05/22 01:53:25;;;;;;;3.05;1.60;;;21.20;71.30;;;;;;5013436;28;20177;-74
2022/05/22 01:55:52;;;;;;;1.42;1.40;;;;;;;;;;5016788;28;20672;-74
2022/05/22 01:58:18;;;;;;;1.35;1.25;;;21.10;70.20;;;;;;5008362;28;20187;-74
2022/05/22 02:00:44;;;;;;;4.68;1.70;;;21.10;69.40;;;;;;5011241;28;20191;-74
2022/05/22 02:03:09;;;;;;;1.80;1.80;;;21.20;69.10;;;;;;5012860;28;20224;-74
2022/05/22 02:05:35;;;;;;;1.25;1.25;;;21.30;68.90;;;;;;5008774;28;20685;-74
2022/05/22 02:08:20;;;;;;;1.13;1.13;;;21.20;68.10;;;;;;5006839;28;20260;-74
2022/05/22 02:10:50;;;;;;;1.20;1.20;;;21.30;67.70;;;;;;5012474;28;20721;-74
2022/05/22 02:13:20;;;;;;;1.60;1.38;;;21.30;67.50;;;;;;5009373;28;20195;-73
2022/05/22 02:15:47;;;;;;;2.10;1.45;;;21.30;67.40;;;;;;5030040;28;20195;-73
2022/05/22 02:18:13;;;;;;;1.42;1.38;;;21.20;67.10;;;;;;5012706;28;20280;-73
2022/05/22 02:20:39;;;;;;;1.63;1.20;;;;;;;;;;5017203;28;20267;-73
2022/05/22 02:23:05;;;;;;;2.25;0.95;;;21.30;66.60;;;;;;5013394;28;20208;-73
2022/05/22 02:25:34;;;;;;;1.48;1.35;;;21.30;66.40;;;;;;5013225;28;20205;-73
2022/05/22 02:28:01;;;;;;;1.20;1.20;;;21.20;65.90;;;;;;5014294;28;20187;-73
2022/05/22 02:30:30;;;;;;;1.95;1.30;;;21.20;65.90;;;;;;5014407;28;20513;-73
2022/05/22 02:32:56;;;;;;;4.88;1.00;;;21.20;65.40;;;;;;5013258;28;20222;-74
2022/05/22 02:35:22;;;;;;;1.27;1.27;;;21.30;65.60;;;;;;5014228;28;20303;-73
2022/05/22 02:37:53;;;;;;;2.35;1.15;;;21.30;65.20;;;;;;5014858;28;20188;-73
2022/05/22 02:40:22;;;;;;;1.00;1.00;;;21.30;64.90;;;;;;5013829;28;20275;-74
2022/05/22 02:42:50;;;;;;;1.02;1.02;;;21.20;64.60;;;;;;5010755;28;20251;-73
2022/05/22 02:45:19;;;;;;;0.90;0.88;;;21.20;64.60;;;;;;5016324;28;20683;-73
2022/05/22 02:47:46;;;;;;;0.70;0.70;;;21.20;64.40;;;;;;5013373;28;20187;-73
2022/05/22 02:50:14;;;;;;;1.00;1.00;;;21.10;63.90;;;;;;5046587;28;20190;-73
2022/05/22 02:52:39;;;;;;;1.38;1.27;;;21.10;63.90;;;;;;5013894;28;20379;-73
2022/05/22 02:55:06;;;;;;;1.20;1.20;;;21.00;64.00;;;;;;5013863;28;20279;-73
2022/05/22 02:57:33;;;;;;;1.17;0.70;;;21.00;63.20;;;;;;5011460;28;20310;-74
2022/05/22 02:59:59;;;;;;;1.10;1.10;;;21.00;63.10;;;;;;5013654;28;20241;-74
2022/05/22 03:02:25;;;;;;;1.02;1.02;;;21.00;62.90;;;;;;5008801;28;20219;-74
2022/05/22 03:04:51;;;;;;;1.40;0.80;;;21.00;62.30;;;;;;5012936;28;20191;-73
2022/05/22 03:07:18;;;;;;;0.85;0.85;;;20.90;61.90;;;;;;5014684;28;20187;-74
2022/05/22 03:09:46;;;;;;;1.35;0.88;;;21.00;61.60;;;;;;5014240;28;20242;-74
2022/05/22 03:12:15;;;;;;;1.48;0.80;;;21.00;61.20;;;;;;5012961;28;20195;-74
2022/05/22 03:14:49;;;;;;;1.65;0.70;;;21.10;61.20;;;;;;5042679;28;20188;-73
2022/05/22 03:17:15;;;;;;;0.85;0.85;;;20.90;60.30;;;;;;5010006;28;20197;-73
2022/05/22 03:19:41;;;;;;;1.13;0.75;;;;;;;;;;5013728;28;21144;-74
2022/05/22 03:22:08;;;;;;;0.73;0.73;;;21.00;60.00;;;;;;5013883;28;20212;-73
2022/05/22 03:24:34;;;;;;;1.25;1.25;;;21.00;59.80;;;;;;5009977;28;20275;-73
2022/05/22 03:27:14;;;;;;;0.60;0.60;;;21.00;59.40;;;;;;5013927;28;20184;-74
2022/05/22 03:29:42;;;;;;;1.75;0.73;;;21.00;58.50;;;;;;5010316;28;20180;-73
2022/05/22 03:32:08;;;;;;;0.63;0.63;;;21.10;58.50;;;;;;5014568;28;20270;-73
2022/05/22 03:34:35;;;;;;;1.75;0.52;;;21.20;58.50;;;;;;5012177;28;20192;-72
2022/05/22 03:37:01;;;;;;;0.73;0.65;;;21.20;58.00;;;;;;5012018;28;20740;-72
2022/05/22 03:39:27;;;;;;;1.00;0.90;;;21.30;58.20;;;;;;5017583;28;20184;-72
2022/05/22 03:41:53;;;;;;;1.77;0.65;;;21.30;57.70;;;;;;5017181;28;20221;-73
2022/05/22 03:44:19;;;;;;;1.75;0.60;;;21.30;57.40;;;;;;5015961;28;20189;-73
2022/05/22 03:46:46;;;;;;;0.55;0.55;;;21.40;57.40;;;;;;5011794;28;20263;-72
2022/05/22 03:49:12;;;;;;;1.40;0.43;;;21.40;57.10;;;;;;5044392;28;20308;-73
2022/05/22 03:51:39;;;;;;;0.40;0.40;;;21.40;57.00;;;;;;5012790;28;20191;-73
2022/05/22 03:54:05;;;;;;;0.47;0.47;;;21.50;56.80;;;;;;5016021;28;20673;-73
2022/05/22 03:56:31;;;;;;;2.25;0.60;;;21.50;56.90;;;;;;5014712;28;20568;-71
2022/05/22 03:58:57;;;;;;;0.50;0.50;;;;;;;;;;5014633;28;20208;-72
2022/05/22 04:01:23;;;;;;;0.70;0.70;;;21.60;56.30;;;;;;5013662;28;20314;-72
2022/05/22 04:03:49;;;;;;;0.60;0.60;;;;;;;;;;5015596;28;20256;-73
2022/05/22 04:06:15;;;;;;;0.50;0.50;;;21.60;56.20;;;;;;5018288;28;20181;-72
2022/05/22 04:08:41;;;;;;;0.50;0.50;;;21.60;56.10;;;;;;5017384;28;20203;-73
2022/05/22 04:11:16;;;;;;;0.47;0.47;;;21.70;55.90;;;;;;5018287;28;20259;-73
2022/05/22 04:13:41;;;;;;;0.50;0.50;;;21.80;56.10;;;;;;5018836;28;20188;-74
2022/05/22 04:16:07;;;;;;;1.85;0.73;;;21.80;55.90;;;;;;5017804;28;20183;-74
2022/05/22 04:18:33;;;;;;;0.55;0.55;;;;;;;;;;5016877;28;20193;-73
2022/05/22 04:21:00;;;;;;;2.65;0.50;;;21.70;56.20;;;;;;5014161;28;20180;-74
2022/05/22 04:26:11;;;;;;;0.70;0.70;;;21.80;56.00;;;;;;5012192;28;20220;-74
2022/05/22 04:28:37;;;;;;;0.70;0.70;;;21.80;55.90;;;;;;5018417;28;20177;-73
2022/05/22 04:31:04;;;;;;;0.52;0.52;;;21.80;55.90;;;;;;5014249;28;20190;-74
2022/05/22 04:33:31;;;;;;;0.50;0.50;;;21.90;56.20;;;;;;5011306;28;20189;-73
2022/05/22 04:36:00;;;;;;;0.60;0.60;;;21.90;55.80;;;;;;5016827;28;20268;-73
2022/05/22 04:38:27;;;;;;;0.70;0.70;;;21.80;55.50;;;;;;5018357;28;20198;-73
2022/05/22 04:40:57;;;;;;;0.82;0.60;;;21.90;55.80;;;;;;5011467;28;20181;-74
2022/05/22 04:43:25;;;;;;;0.40;0.40;;;21.90;56.20;;;;;;5015474;28;20196;-73
2022/05/22 04:45:51;;;;;;;0.50;0.50;;;21.90;56.20;;;;;;5014864;28;20189;-73
2022/05/22 04:48:18;;;;;;;1.23;0.50;;;21.90;56.30;;;;;;5012931;28;20177;-73
2022/05/22 04:50:49;;;;;;;0.75;0.75;;;21.90;56.30;;;;;;5013251;28;20196;-73
2022/05/22 04:53:17;;;;;;;1.20;0.77;;;22.00;56.40;;;;;;5015755;28;20195;-73
2022/05/22 04:55:43;;;;;;;1.23;0.40;;;22.00;56.50;;;;;;5013619;28;20204;-73
2022/05/22 04:58:09;;;;;;;0.57;0.57;;;22.00;56.60;;;;;;5013981;28;20721;-73
2022/05/22 05:00:35;;;;;;;2.03;0.60;;;21.90;56.60;;;;;;5016076;28;20185;-73
2022/05/22 05:03:01;;;;;;;0.55;0.52;;;21.90;56.30;;;;;;5016325;28;20216;-73
2022/05/22 05:05:28;;;;;;;0.70;0.60;;;;;;;;;;5010681;28;20185;-73
2022/05/22 05:07:54;;;;;;;0.63;0.63;;;22.10;56.60;;;;;;5014865;28;20520;-73
2022/05/22 05:10:29;;;;;;;0.50;0.50;;;22.10;56.30;;;;;;5013486;28;20184;-73
2022/05/22 05:12:55;;;;;;;1.10;0.60;;;;;;;;;;5012315;28;20179;-73
2022/05/22 05:15:23;;;;;;;0.60;0.60;;;22.20;56.70;;;;;;5014209;28;20213;-73
2022/05/22 05:17:49;;;;;;;1.05;0.60;;;22.20;56.50;;;;;;5046224;28;20200;-73
2022/05/22 05:20:18;;;;;;;1.40;0.50;;;22.30;56.50;;;;;;5012002;28;20201;-73
2022/05/22 05:22:45;;;;;;;0.57;0.57;;;22.30;56.10;;;;;;5013808;28;20225;-73
2022/05/22 05:25:15;;;;;;;0.40;0.40;;;22.20;56.20;;;;;;5016334;28;20255;-73
2022/05/22 05:27:40;;;;;;;0.55;0.47;;;22.20;55.90;;;;;;5014645;28;20188;-73
2022/05/22 05:30:07;;;;;;;0.40;0.40;;;22.20;56.00;;;;;;5013319;28;20188;-74
2022/05/22 05:32:33;;;;;;;0.55;0.55;;;22.20;56.20;;;;;;5010697;28;20571;-73
2022/05/22 05:35:01;;;;;;;0.47;0.47;;;22.20;56.20;;;;;;5011095;28;20176;-73
2022/05/22 05:37:27;;;;;;;1.65;0.60;;;22.30;56.40;;;;;;5010063;28;20213;-73
2022/05/22 05:39:54;;;;;;;0.80;0.60;;;22.30;56.10;;;;;;5007142;28;20228;-74
2022/05/22 05:42:21;;;;;;;0.50;0.50;;;22.30;56.00;;;;;;5009900;28;20216;-74
2022/05/22 05:44:48;;;;;;;0.73;0.60;;;22.30;56.20;;;;;;5045709;28;20719;-74
2022/05/22 05:47:14;;;;;;;0.63;0.63;;;22.30;55.60;;;;;;5003775;28;20673;-73
2022/05/22 05:49:40;;;;;;;0.50;0.50;;;22.40;56.30;;;;;;5014098;28;20201;-74
2022/05/22 05:52:07;;;;;;;0.60;0.60;;;22.40;56.10;;;;;;5011869;28;20193;-73
2022/05/22 05:54:33;;;;;;;0.60;0.60;;;22.50;56.20;;;;;;5009649;28;20188;-74
2022/05/22 05:56:59;;;;;;;0.50;0.50;;;;;;;;;;5009109;28;20185;-73
2022/05/22 05:59:27;;;;;;;0.52;0.52;;;22.60;55.90;;;;;;5012092;28;20194;-74
2022/05/22 06:01:53;;;;;;;1.73;0.68;;;22.50;55.90;;;;;;5018500;28;20216;-74
2022/05/22 06:04:20;;;;;;;0.55;0.55;;;22.40;56.10;;;;;;5014177;28;20576;-72
2022/05/22 06:06:46;;;;;;;0.50;0.50;;;;;;;;;;5008986;28;20241;-73
2022/05/22 06:09:12;;;;;;;0.57;0.57;;;22.40;56.30;;;;;;5011137;28;20193;-73
2022/05/22 06:11:38;;;;;;;0.75;0.60;;;22.50;56.10;;;;;;5015084;28;21090;-73
2022/05/22 06:14:04;;;;;;;0.43;0.43;;;;;;;;;;5012115;28;20602;-74
2022/05/22 06:16:29;;;;;;;0.95;0.55;;;22.40;56.50;;;;;;5010766;28;20263;-74
2022/05/22 06:18:55;;;;;;;0.40;0.40;;;22.40;56.70;;;;;;5008832;28;20284;-73
2022/05/22 06:21:22;;;;;;;1.10;0.70;;;22.30;56.50;;;;;;5010691;28;20208;-74
2022/05/22 06:23:49;;;;;;;0.68;0.65;;;22.30;56.60;;;;;;5013521;28;20193;-74
2022/05/22 06:26:19;;;;;;;3.50;0.73;;;22.30;56.50;;;;;;5012452;28;20177;-74
2022/05/22 06:28:46;;;;;;;0.50;0.50;;;22.20;56.80;;;;;;5042187;28;20271;-75
2022/05/22 06:31:13;;;;;;;0.52;0.40;;;22.20;56.80;;;;;;5015144;28;20287;-72
2022/05/22 06:33:40;;;;;;;1.13;0.55;;;22.20;57.10;;;;;;5007948;28;20196;-74
2022/05/22 06:36:08;;;;;;;0.43;0.43;;;22.20;57.20;;;;;;5007937;28;20773;-75
2022/05/22 06:41:18;;;;;;;2.50;0.90;;;22.10;57.60;;;;;;5013820;28;20202;-72
2022/05/22 06:43:46;;;;;;;0.60;0.60;;;;;;;;;;5009446;28;20758;-73
2022/05/22 06:46:12;;;;;;;0.40;0.40;;;22.30;57.70;;;;;;5010046;28;20251;-74
2022/05/22 06:48:38;;;;;;;0.40;0.40;;;22.20;57.60;;;;;;5007034;28;20601;-74
2022/05/22 06:51:04;;;;;;;0.82;0.57;;;;;;;;;;5013577;28;20188;-75
2022/05/22 06:53:30;;;;;;;0.60;0.60;;;;;;;;;;5012385;28;20254;-74
2022/05/22 06:55:55;;;;;;;0.70;0.70;;;22.30;58.30;;;;;;5014496;28;20185;-77
2022/05/22 06:58:21;;;;;;;0.50;0.40;;;22.30;58.60;;;;;;5011433;28;20199;-74
2022/05/22 07:00:51;;;;;;;0.55;0.55;;;22.30;58.50;;;;;;5009899;28;20716;-74
2022/05/22 07:03:17;;;;;;;1.48;0.50;;;22.30;58.60;;;;;;5027494;28;20219;-76
2022/05/22 07:05:43;;;;;;;0.40;0.40;;;22.30;58.60;;;;;;5007308;28;20254;-77
2022/05/22 07:08:09;;;;;;;0.50;0.50;;;;;;;;;;5010907;28;20187;-75
2022/05/22 07:13:19;;;;;;;1.13;0.60;;;22.40;59.00;;;;;;5016255;28;20203;-75
2022/05/22 07:15:46;;;;;;;0.50;0.50;;;22.50;58.50;;;;;;5011639;28;20195;-74
2022/05/22 07:18:11;;;;;;;0.70;0.70;;;22.50;59.20;;;;;;5010162;28;20263;-74
2022/05/22 07:20:37;;;;;;;0.43;0.43;;;;;;;;;;5012529;28;20184;-77
2022/05/22 07:23:03;;;;;;;1.92;0.82;;;22.60;59.40;;;;;;5012102;28;20220;-76
2022/05/22 07:25:29;;;;;;;1.33;0.50;;;22.60;59.50;;;;;;5007538;28;20185;-74
2022/05/22 07:27:55;;;;;;;0.70;0.70;;;;;;;;;;5012336;28;20192;-74
2022/05/22 07:30:20;;;;;;;1.30;0.40;;;22.70;58.70;;;;;;5013678;28;20676;-73
2022/05/22 07:32:46;;;;;;;1.30;0.70;;;22.80;58.80;;;;;;5014252;28;20189;-73
2022/05/22 07:35:12;;;;;;;0.90;0.90;;;22.80;59.60;;;;;;5013545;28;20184;-73
2022/05/22 07:37:38;;;;;;;0.40;0.40;;;;;;;;;;5013079;28;20272;-74
2022/05/22 07:40:04;;;;;;;0.60;0.60;;;22.90;59.10;;;;;;5012259;28;20204;-74
2022/05/22 07:42:30;;;;;;;0.65;0.50;;;;;;;;;;5013647;28;20227;-72
2022/05/22 07:44:56;;;;;;;2.15;0.65;;;;;;;;;;5011832;28;20188;-73
2022/05/22 07:47:22;;;;;;;0.40;0.40;;;23.20;58.90;;;;;;5008170;28;20276;-74
2022/05/22 07:52:37;;;;;;;1.38;0.50;;;23.40;58.90;;;;;;5007702;28;20232;-71
2022/05/22 07:55:03;;;;;;;0.60;0.60;;;23.40;58.10;;;;;;5010534;28;20183;-72
2022/05/22 07:57:29;;;;;;;0.70;0.70;;;;;;;;;;5009188;28;20224;-72
2022/05/22 07:59:55;;;;;;;1.77;0.75;;;23.50;58.70;;;;;;5010127;28;20185;-72
2022/05/22 08:02:21;;;;;;;0.60;0.60;;;;;;;;;;5005441;28;20227;-72
2022/05/22 08:04:47;;;;;;;1.75;0.70;;;;;;;;;;5005446;28;20189;-70
2022/05/22 08:07:13;;;;;;;3.08;0.85;;;;;;;;;;5008566;28;20256;-72
2022/05/22 08:09:39;;;;;;;0.50;0.50;;;;;;;;;;5009375;28;20209;-72
2022/05/22 08:12:05;;;;;;;3.03;0.70;;;23.60;59.20;;;;;;5013569;28;20180;-71
2022/05/22 08:14:32;;;;;;;1.45;0.60;;;23.70;59.20;;;;;;5011434;28;20189;-72
2022/05/22 08:16:58;;;;;;;0.95;0.77;;;;;;;;;;5010346;28;20191;-72
2022/05/22 08:19:25;;;;;;;0.55;0.55;;;;;;;;;;5008745;28;20724;-72
2022/05/22 08:21:51;;;;;;;0.50;0.50;;;;;;;;;;5009289;28;20219;-72
2022/05/22 08:24:17;;;;;;;2.92;0.60;;;;;;;;;;5012894;28;20219;-71
2022/05/22 08:26:42;;;;;;;0.60;0.60;;;23.50;59.60;;;;;;5006691;28;20678;-72
2022/05/22 08:29:08;;;;;;;0.50;0.50;;;23.50;59.60;;;;;;5007365;28;20181;-71
2022/05/22 08:31:34;;;;;;;0.52;0.52;;;;;;;;;;5008714;28;20839;-73
2022/05/22 08:34:00;;;;;;;0.85;0.63;;;;;;;;;;5011084;28;20242;-73
2022/05/22 08:36:26;;;;;;;0.77;0.77;;;;;;;;;;5010009;28;20189;-72
2022/05/22 08:38:52;;;;;;;0.77;0.77;;;23.80;60.10;;;;;;5013422;28;20271;-72
2022/05/22 08:41:27;;;;;;;0.85;0.85;;;24.00;60.20;;;;;;5015065;28;20307;-71
2022/05/22 08:44:09;;;;;;;0.70;0.70;;;24.20;60.60;;;;;;5013037;28;20246;-72
2022/05/22 08:46:44;;;;;;;0.80;0.80;;;24.20;60.70;;;;;;5013571;28;20670;-72
2022/05/22 08:49:20;;;;;;;1.40;1.00;;;24.10;60.20;;;;;;5011994;28;20199;-71
2022/05/22 08:51:51;;;;;;;0.80;0.80;;;24.00;60.60;;;;;;5014973;28;21760;-72
2022/05/22 08:54:34;;;;;;;1.02;0.90;;;23.80;60.80;;;;;;5025493;28;20632;-71
2022/05/22 08:59:53;;;;;;;1.15;0.90;;;23.40;61.70;;;;;;5015247;28;21035;-72
2022/05/22 09:02:42;;;;;;;0.90;0.90;;;23.30;62.00;;;;;;5046493;28;20331;-72
2022/05/22 09:05:13;;;;;;;0.70;0.70;;;23.30;61.40;;;;;;5009397;28;20619;-73
2022/05/22 09:08:02;;;;;;;1.00;1.00;;;23.20;62.40;;;;;;5008573;28;20614;-72
2022/05/22 09:10:55;;;;;;;0.70;0.70;;;23.10;62.60;;;;;;4963126;28;20714;-70
2022/05/22 09:13:38;;;;;;;0.70;0.70;;;23.00;63.00;;;;;;4980795;28;20236;-72
2022/05/22 09:16:29;;;;;;;0.68;0.68;;;23.00;62.40;;;;;;4964864;28;20209;-72
2022/05/22 09:19:08;;;;;;;2.50;0.60;;;22.90;61.90;;;;;;4963385;28;20198;-72
2022/05/22 09:21:39;;;;;;;0.68;0.68;;;22.90;61.70;;;;;;4969338;28;20267;-71
2022/05/22 09:24:12;;;;;;;3.65;0.60;;;22.80;61.90;;;;;;4964712;28;20190;-71
2022/05/22 09:26:42;;;;;;;0.77;0.77;;;22.90;62.30;;;;;;4967056;28;20182;-71
2022/05/22 09:29:16;;;;;;;0.60;0.60;;;22.80;62.30;;;;;;4966559;28;20586;-71
2022/05/22 09:32:09;;;;;;;0.63;0.63;;;22.90;62.30;;;;;;4968586;28;20805;-71
2022/05/22 09:34:43;;;;;;;0.65;0.60;;;22.90;62.60;;;;;;4967009;28;20198;-71
2022/05/22 09:37:09;;;;;;;4.35;0.88;;;;;;;;;;4962908;28;20357;-71
2022/05/22 09:39:35;;;;;;;0.60;0.60;;;;;;;;;;4962475;28;20326;-71
2022/05/22 09:42:01;;;;;;;0.70;0.70;;;;;;;;;;4970273;28;20312;-72
2022/05/22 09:45:03;;;;;;;0.80;0.80;;;23.20;61.90;;;;;;4973226;28;20185;-72
2022/05/22 09:48:11;;;;;;;1.55;0.60;;;23.40;60.90;;;;;;4985784;28;20192;-72
2022/05/22 09:51:26;;;;;;;0.50;0.50;;;23.40;60.70;;;;;;4942620;28;20210;-71
2022/05/22 09:54:03;;;;;;;0.40;0.40;;;23.40;60.40;;;;;;4867144;29;20630;-71
2022/05/22 09:57:01;;;;;;;1.25;0.60;;;23.50;60.60;;;;;;4866427;29;20594;-71
2022/05/22 09:59:27;;;;;;;1.10;0.55;;;;;;;;;;4866543;29;20893;-71
2022/05/22 10:01:59;;;;;;;0.50;0.50;;;23.90;60.60;;;;;;4866543;29;20225;-71
2022/05/22 10:04:39;;;;;;;0.77;0.50;;;24.20;60.30;;;;;;4866414;29;20232;-71
2022/05/22 10:07:05;;;;;;;0.50;0.50;;;;;;;;;;4865224;29;20787;-70
2022/05/22 10:09:31;;;;;;;0.40;0.40;;;;;;;;;;4867767;29;20202;-71
2022/05/22 10:11:57;;;;;;;0.50;0.50;;;;;;;;;;4868386;29;20212;-71
2022/05/22 10:14:47;;;;;;;0.40;0.40;;;25.10;58.80;;;;;;4867441;29;20202;-72
2022/05/22 10:17:34;;;;;;;0.50;0.50;;;25.30;58.30;;;;;;4865722;29;20236;-70
2022/05/22 10:20:21;;;;;;;0.50;0.50;;;25.50;57.50;;;;;;4865224;29;20205;-72
2022/05/22 10:23:12;;;;;;;0.68;0.60;;;25.60;56.80;;;;;;4881550;29;20301;-73
2022/05/22 10:25:38;;;;;;;0.50;0.50;;;;;;;;;;4932949;28;20199;-73
2022/05/22 10:28:26;;;;;;;0.68;0.68;;;25.70;56.70;;;;;;5004251;28;20210;-73
2022/05/22 10:31:03;;;;;;;0.98;0.50;;;25.70;56.80;;;;;;5008728;28;20189;-72
2022/05/22 10:34:06;;;;;;;0.50;0.50;;;25.70;57.00;;;;;;5007740;28;20204;-72
2022/05/22 10:36:45;;;;;;;0.57;0.57;;;25.90;57.20;;;;;;5012221;28;20622;-73
2022/05/22 10:39:13;;;;;;;0.55;0.47;;;25.90;57.00;;;;;;5012067;28;20196;-73
2022/05/22 10:44:36;;;;;;;0.57;0.57;;;25.90;56.50;;;;;;5004857;28;20740;-73
2022/05/22 10:47:02;;;;;;;1.77;0.57;;;25.90;56.70;;;;;;5000255;28;20187;-73
2022/05/22 10:49:45;;;;;;;0.50;0.50;;;25.90;57.00;;;;;;5000443;28;20189;-73
2022/05/22 10:52:14;;;;;;;1.13;0.50;;;26.10;56.70;;;;;;5007066;28;20198;-73
2022/05/22 10:54:50;;;;;;;3.47;1.10;;;26.20;56.40;;;;;;5037956;28;20189;-73
2022/05/22 10:57:28;;;;;;;0.73;0.60;;;26.30;56.80;;;;;;5039668;28;20191;-73
2022/05/22 10:59:54;;;;;;;3.22;0.60;;;26.40;56.10;;;;;;5001587;28;20185;-72
2022/05/22 11:02:31;;;;;;;1.35;0.57;;;26.40;56.20;;;;;;5007508;28;20219;-73
2022/05/22 11:04:59;;;;;;;0.50;0.50;;;26.50;55.90;;;;;;5007100;28;20184;-72
2022/05/22 11:07:34;;;;;;;0.90;0.75;;;26.40;56.40;;;;;;5004213;28;20185;-73
2022/05/22 11:10:26;;;;;;;0.50;0.50;;;26.60;56.30;;;;;;5006724;28;20177;-73
2022/05/22 11:13:08;;;;;;;0.73;0.73;;;27.00;56.60;;;;;;5006499;28;21292;-73
2022/05/22 11:15:39;;;;;;;0.50;0.50;;;27.20;56.10;;;;;;5000020;28;20187;-73
2022/05/22 11:18:06;;;;;;;1.10;0.45;;;27.20;56.30;;;;;;4999880;28;20681;-74
2022/05/22 11:20:32;;;;;;;0.82;0.80;;;27.30;56.50;;;;;;5007008;28;20195;-73
2022/05/22 11:23:25;;;;;;;0.70;0.70;;;27.40;56.40;;;;;;5005996;28;20215;-73
2022/05/22 11:26:18;;;;;;;0.50;0.50;;;27.80;56.40;;;;;;5004063;28;20228;-73
2022/05/22 11:29:23;;;;;;;0.98;0.52;;;28.40;55.10;;;;;;5004325;28;20185;-75
2022/05/22 11:31:49;;;;;;;0.55;0.55;;;;;;;;;;5005276;28;20270;-75
2022/05/22 11:34:32;;;;;;;1.38;0.80;;;29.10;54.50;;;;;;5004583;28;20184;-75
2022/05/22 11:37:17;;;;;;;0.70;0.70;;;29.40;54.10;;;;;;5006726;28;20768;-76
2022/05/22 11:40:01;;;;;;;2.40;0.93;;;29.60;53.40;;;;;;5005311;28;20243;-73
2022/05/22 11:42:27;;;;;;;0.70;0.70;;;;;;;;;;5008517;28;20290;-73
2022/05/22 11:45:12;;;;;;;1.05;1.05;;;29.30;52.80;;;;;;5002245;28;20566;-72
2022/05/22 11:47:46;;;;;;;0.88;0.80;;;28.80;52.70;;;;;;5010428;28;20204;-73
2022/05/22 11:50:49;;;;;;;1.13;0.60;;;28.10;53.00;;;;;;5005007;28;20743;-72
2022/05/22 11:53:16;;;;;;;0.75;0.75;;;;;;;;;;5004674;28;20576;-73
2022/05/22 11:56:07;;;;;;;0.75;0.75;;;27.10;55.00;;;;;;5006790;28;20203;-73
2022/05/22 11:58:52;;;;;;;1.90;0.63;;;26.60;56.00;;;;;;5006383;28;20188;-75
2022/05/22 12:01:36;;;;;;;0.63;0.63;;;26.10;56.60;;;;;;5004904;28;22119;-75
2022/05/22 12:04:17;;;;;;;2.47;0.75;;;25.70;57.20;;;;;;5025019;28;20687;-73
2022/05/22 12:07:02;;;;;;;1.33;0.60;;;25.40;57.80;;;;;;5010443;28;20188;-73
2022/05/22 12:09:55;;;;;;;0.50;0.50;;;25.00;58.50;;;;;;5013296;28;21003;-75
2022/05/22 12:12:39;;;;;;;1.05;0.50;;;24.80;59.10;;;;;;5010910;28;20203;-73
2022/05/22 12:15:11;;;;;;;3.08;0.75;;;24.60;59.60;;;;;;5014352;28;20184;-71
2022/05/22 12:17:37;;;;;;;0.77;0.70;;;;;;;;;;5012673;28;20266;-72
2022/05/22 12:20:22;;;;;;;0.50;0.50;;;24.40;59.80;;;;;;5014015;28;20193;-73
2022/05/22 12:23:16;;;;;;;0.85;0.70;;;24.20;60.10;;;;;;5011593;28;20235;-74
2022/05/22 12:25:48;;;;;;;0.50;0.50;;;24.00;60.70;;;;;;5008707;28;20190;-74
2022/05/22 12:28:36;;;;;;;1.50;0.68;;;24.10;60.70;;;;;;5015034;28;20242;-74
2022/05/22 12:31:18;;;;;;;0.60;0.60;;;23.90;60.90;;;;;;5013231;28;20187;-74
2022/05/22 12:33:44;;;;;;;0.70;0.70;;;23.80;61.30;;;;;;5012879;28;20663;-73
2022/05/22 12:36:11;;;;;;;0.77;0.77;;;23.60;61.80;;;;;;5012435;28;20263;-73
2022/05/22 12:38:53;;;;;;;0.68;0.68;;;23.60;62.00;;;;;;5042627;28;20203;-73
2022/05/22 12:41:39;;;;;;;2.13;0.60;;;23.30;62.20;;;;;;5012649;28;20246;-73
2022/05/22 12:44:05;;;;;;;2.67;0.80;;;23.20;62.50;;;;;;5009868;28;20192;-73
2022/05/22 12:46:32;;;;;;;0.73;0.73;;;23.10;63.00;;;;;;5013311;28;20268;-73
2022/05/22 12:49:19;;;;;;;0.65;0.65;;;23.00;63.40;;;;;;5008578;28;20207;-73
2022/05/22 12:51:57;;;;;;;1.02;0.95;;;22.90;63.70;;;;;;5042984;28;20230;-72
2022/05/22 12:54:25;;;;;;;0.63;0.60;;;22.80;64.10;;;;;;5012773;28;20184;-74
2022/05/22 12:56:52;;;;;;;0.65;0.63;;;22.70;64.10;;;;;;5010437;28;20359;-74
2022/05/22 12:59:25;;;;;;;0.68;0.68;;;22.60;64.40;;;;;;5014827;28;20191;-73
2022/05/22 13:02:23;;;;;;;0.70;0.70;;;22.50;64.80;;;;;;5011985;28;20209;-74
2022/05/22 13:04:57;;;;;;;5.30;0.65;;;22.30;65.20;;;;;;5014861;28;20181;-74
2022/05/22 13:07:29;;;;;;;0.77;0.77;;;22.20;65.10;;;;;;5014179;28;20682;-74
2022/05/22 13:09:55;;;;;;;0.70;0.70;;;;;;;;;;5014744;28;20558;-74
2022/05/22 13:12:30;;;;;;;0.70;0.70;;;22.00;65.60;;;;;;5015837;28;20255;-74
2022/05/22 13:15:15;;;;;;;0.65;0.65;;;21.90;65.70;;;;;;5026848;28;20195;-74
2022/05/22 13:17:52;;;;;;;0.55;0.50;;;21.70;65.90;;;;;;5027392;28;20733;-74
2022/05/22 13:20:25;;;;;;;0.60;0.60;;;21.70;66.50;;;;;;5006354;28;20196;-74
2022/05/22 13:23:03;;;;;;;0.98;0.82;;;21.60;66.60;;;;;;5009808;28;20220;-74
2022/05/22 13:25:43;;;;;;;0.50;0.50;;;21.40;67.20;;;;;;5013825;28;20176;-74
2022/05/22 13:28:43;;;;;;;0.63;0.63;;;21.40;67.30;;;;;;5012699;28;20244;-73
2022/05/22 13:31:12;;;;;;;0.63;0.63;;;21.30;67.90;;;;;;5013630;28;20191;-73
2022/05/22 13:33:44;;;;;;;0.90;0.90;;;21.30;67.60;;;;;;5009400;28;20228;-72
2022/05/22 13:36:25;;;;;;;0.75;0.75;;;21.20;67.30;;;;;;5007645;28;20243;-76
2022/05/22 13:39:07;;;;;;;2.10;1.05;;;21.30;68.50;;;;;;5013223;28;20263;-77
2022/05/22 13:41:43;;;;;;;1.20;0.75;;;21.20;68.30;;;;;;5012495;28;20272;-75